Gleichen, Canada
Current Conditions -  °F | °C
As of 7:00 AM on Friday 24 Oct 2014 (Local Time) from CYYC Reporting Station
Few Clouds Few Clouds  
Wind Chill: 31°   Ceiling: Unl
Heat Index: 37°   Visibility: 15mi
Dew Point: 23°   Wind: 9mph
Humidity: 56%   Direction: 220°SW
Pressure: 29.81"   Gusts: NA
Location:  50.87°N, 113.05°W
Report Text: CYYC 241300Z 22008KT 15SM FEW200 03/M05 A2981 RMK CI1 CI TR SLP121
Loading
Personal Weather Stations






























Interactive Weather Map
Tropical Storm Tracking
New forecast layout! Learn more

10-Day Weather Forecast

Advertisements
Track Severe Weather on mobile